createdAt,value
2022-08-07T00:00:40.175Z,17.27
2022-08-07T00:01:44.219Z,17.28
2022-08-07T00:02:41.671Z,17.27
2022-08-07T00:03:38.328Z,17.27
2022-08-07T00:04:38.288Z,17.28
2022-08-07T00:05:37.372Z,17.27
2022-08-07T00:06:37.244Z,17.28
2022-08-07T00:07:41.227Z,17.30
2022-08-07T00:08:37.224Z,17.30
2022-08-07T00:09:38.205Z,17.32
2022-08-07T00:10:48.017Z,17.27
2022-08-07T00:11:47.841Z,17.30
2022-08-07T00:12:56.902Z,17.27
2022-08-07T00:13:40.506Z,17.27
2022-08-07T00:14:38.147Z,17.25
2022-08-07T00:15:46.421Z,17.24
2022-08-07T00:16:38.102Z,17.21
2022-08-07T00:17:37.092Z,17.20
2022-08-07T00:18:37.082Z,17.17
2022-08-07T00:20:02.507Z,17.15
2022-08-07T00:20:38.051Z,17.14
2022-08-07T00:21:56.221Z,17.10
2022-08-07T00:22:38.072Z,17.05
2022-08-07T00:23:37.049Z,17.05
2022-08-07T00:24:37.003Z,17.02
2022-08-07T00:25:37.567Z,17.00
2022-08-07T00:26:59.503Z,16.98
2022-08-07T00:27:53.485Z,16.95
2022-08-07T00:28:46.180Z,16.90
2022-08-07T00:29:37.969Z,16.87
2022-08-07T00:30:36.922Z,16.84
2022-08-07T00:31:38.180Z,16.81
2022-08-07T00:32:36.910Z,16.80
2022-08-07T00:33:37.010Z,16.77
2022-08-07T00:34:36.890Z,16.75
2022-08-07T00:35:36.895Z,16.75
2022-08-07T00:36:38.679Z,16.77
2022-08-07T00:37:48.170Z,16.78
2022-08-07T00:38:39.106Z,16.82
2022-08-07T00:39:36.877Z,16.84
2022-08-07T00:40:40.526Z,16.82
2022-08-07T00:41:37.353Z,16.85
2022-08-07T00:42:37.771Z,16.88
2022-08-07T00:44:01.112Z,16.90
2022-08-07T00:44:38.349Z,16.91
2022-08-07T00:45:36.729Z,16.92
2022-08-07T00:46:36.709Z,16.92
2022-08-07T00:48:08.121Z,16.96
2022-08-07T00:48:42.345Z,16.98
2022-08-07T00:50:19.571Z,16.95
2022-08-07T00:50:46.461Z,16.92
2022-08-07T00:51:57.449Z,16.91
2022-08-07T00:52:37.648Z,16.92
2022-08-07T00:53:39.404Z,16.90
2022-08-07T00:54:37.607Z,16.90
2022-08-07T00:56:02.366Z,16.90
2022-08-07T00:56:37.589Z,16.90
2022-08-07T00:57:36.572Z,16.91
2022-08-07T00:58:36.569Z,16.90
2022-08-07T00:59:36.538Z,16.90
2022-08-07T01:00:36.554Z,16.91
2022-08-07T01:01:43.999Z,16.91
2022-08-07T01:02:37.505Z,16.88
2022-08-07T01:03:57.061Z,16.85
2022-08-07T01:04:43.093Z,16.87
2022-08-07T01:05:37.526Z,16.85
2022-08-07T01:06:36.455Z,16.80
2022-08-07T01:07:36.437Z,16.75
2022-08-07T01:08:36.517Z,16.72
2022-08-07T01:10:04.043Z,16.67
2022-08-07T01:10:37.408Z,16.63
2022-08-07T01:12:23.499Z,16.59
2022-08-07T01:12:37.384Z,16.57
2022-08-07T01:13:36.387Z,16.57
2022-08-07T01:14:37.183Z,16.54
2022-08-07T01:16:05.293Z,16.52
2022-08-07T01:16:37.316Z,16.52
2022-08-07T01:17:36.314Z,16.54
2022-08-07T01:18:36.314Z,16.48
2022-08-07T01:19:38.498Z,16.48
2022-08-07T01:20:42.991Z,16.47
2022-08-07T01:21:37.257Z,16.48
2022-08-07T01:22:36.266Z,16.50
2022-08-07T01:23:38.705Z,16.48
2022-08-07T01:24:36.222Z,16.48
2022-08-07T01:25:53.778Z,16.50
2022-08-07T01:26:37.200Z,16.50
2022-08-07T01:27:36.422Z,16.50
2022-08-07T01:28:37.187Z,16.51
2022-08-07T01:29:36.158Z,16.50
2022-08-07T01:30:36.155Z,16.48
2022-08-07T01:31:41.735Z,16.50
2022-08-07T01:32:37.129Z,16.51
2022-08-07T01:33:55.251Z,16.50
2022-08-07T01:34:37.106Z,16.51
2022-08-07T01:35:36.997Z,16.51
2022-08-07T01:36:40.375Z,16.51
2022-08-07T01:37:36.057Z,16.50
2022-08-07T01:38:36.048Z,16.50
2022-08-07T01:39:41.247Z,16.54
2022-08-07T01:40:37.022Z,16.54
2022-08-07T01:41:36.002Z,16.52
2022-08-07T01:42:40.102Z,16.51
2022-08-07T01:43:38.287Z,16.50
2022-08-07T01:44:35.969Z,16.51
2022-08-07T01:45:37.144Z,16.50
2022-08-07T01:46:35.931Z,16.48
2022-08-07T01:48:20.850Z,16.47
2022-08-07T01:48:37.567Z,16.48
2022-08-07T01:49:35.896Z,16.50
2022-08-07T01:50:35.884Z,16.54
2022-08-07T01:52:01.635Z,16.54
2022-08-07T01:52:36.852Z,16.54
2022-08-07T01:54:12.683Z,16.57
2022-08-07T01:54:37.485Z,16.57
2022-08-07T01:55:35.813Z,16.57
2022-08-07T01:56:35.858Z,16.52
2022-08-07T01:58:01.241Z,16.50
2022-08-07T01:58:37.529Z,16.44
2022-08-07T01:59:36.264Z,16.41
2022-08-07T02:00:38.836Z,16.36
2022-08-07T02:02:01.683Z,16.33
2022-08-07T02:03:11.732Z,16.32
2022-08-07T02:03:42.942Z,16.27
2022-08-07T02:04:36.709Z,16.23
2022-08-07T02:05:47.824Z,16.23
2022-08-07T02:06:36.671Z,16.25
2022-08-07T02:07:44.889Z,16.27
2022-08-07T02:08:36.646Z,16.26
2022-08-07T02:09:52.967Z,16.26
2022-08-07T02:10:36.621Z,16.26
2022-08-07T02:12:02.903Z,16.23
2022-08-07T02:12:36.598Z,16.22
2022-08-07T02:13:57.981Z,16.18
2022-08-07T02:14:40.718Z,16.17
2022-08-07T02:15:35.581Z,16.14
2022-08-07T02:16:35.542Z,16.13
2022-08-07T02:17:35.573Z,16.11
2022-08-07T02:18:35.519Z,16.10
2022-08-07T02:20:05.156Z,16.11
2022-08-07T02:20:36.529Z,16.11
2022-08-07T02:21:55.068Z,16.11
2022-08-07T02:22:40.956Z,16.11
2022-08-07T02:23:36.472Z,16.13
2022-08-07T02:24:35.449Z,16.16
2022-08-07T02:26:32.022Z,16.17
2022-08-07T02:26:36.419Z,16.22
2022-08-07T02:27:35.435Z,16.17
2022-08-07T02:28:35.386Z,16.17
2022-08-07T02:29:43.627Z,16.17
2022-08-07T02:30:36.357Z,16.18
2022-08-07T02:31:35.345Z,16.18
2022-08-07T02:32:35.342Z,16.18
2022-08-07T02:33:57.061Z,16.22
2022-08-07T02:34:36.327Z,16.23
2022-08-07T02:36:30.335Z,16.17
2022-08-07T02:36:36.323Z,16.10
2022-08-07T02:37:36.039Z,16.10
2022-08-07T02:38:35.250Z,16.07
2022-08-07T02:39:43.870Z,16.04
2022-08-07T02:40:36.272Z,16.01
2022-08-07T02:41:37.360Z,15.98
2022-08-07T02:42:35.235Z,15.95
2022-08-07T02:43:35.188Z,15.95
2022-08-07T02:44:36.541Z,15.93
2022-08-07T02:45:58.290Z,15.93
2022-08-07T02:46:36.867Z,15.89
2022-08-07T02:47:45.412Z,15.89
2022-08-07T02:48:36.128Z,15.86
2022-08-07T02:49:58.965Z,15.85
2022-08-07T02:50:36.099Z,15.84
2022-08-07T02:51:42.498Z,15.84
2022-08-07T02:52:36.071Z,15.85
2022-08-07T02:53:38.479Z,15.81
2022-08-07T02:54:35.056Z,15.84
2022-08-07T02:56:03.235Z,15.84
2022-08-07T02:56:36.024Z,15.78
2022-08-07T02:57:35.366Z,15.76
2022-08-07T02:58:35.013Z,15.76
2022-08-07T02:59:34.998Z,15.74
2022-08-07T03:00:34.975Z,15.78
2022-08-07T03:01:36.408Z,15.78
2022-08-07T03:02:35.953Z,15.81
2022-08-07T03:03:49.059Z,15.80
2022-08-07T03:04:35.922Z,15.78
2022-08-07T03:05:36.006Z,15.80
2022-08-07T03:06:34.977Z,15.84
2022-08-07T03:08:04.818Z,15.84
2022-08-07T03:08:35.864Z,15.81
2022-08-07T03:09:43.668Z,15.78
2022-08-07T03:10:35.842Z,15.76
2022-08-07T03:11:38.612Z,15.74
2022-08-07T03:12:34.814Z,15.77
2022-08-07T03:13:38.803Z,15.81
2022-08-07T03:14:34.817Z,15.80
2022-08-07T03:15:55.695Z,15.84
2022-08-07T03:16:35.762Z,15.81
2022-08-07T03:17:36.439Z,15.81
2022-08-07T03:18:36.287Z,15.84
2022-08-07T03:19:36.974Z,15.86
2022-08-07T03:20:34.709Z,15.86
2022-08-07T03:21:34.692Z,15.88
2022-08-07T03:22:34.684Z,15.86
2022-08-07T03:24:20.022Z,15.89
2022-08-07T03:24:36.764Z,15.85
2022-08-07T03:25:40.331Z,15.85
2022-08-07T03:26:35.644Z,15.86
2022-08-07T03:27:58.758Z,15.85
2022-08-07T03:28:37.493Z,15.85
2022-08-07T03:29:36.751Z,15.88
2022-08-07T03:30:34.586Z,15.88
2022-08-07T03:31:42.857Z,15.86
2022-08-07T03:32:35.539Z,15.89
2022-08-07T03:33:40.139Z,15.91
2022-08-07T03:34:39.193Z,15.92
2022-08-07T03:35:43.718Z,15.92
2022-08-07T03:36:35.499Z,15.92
2022-08-07T03:37:37.511Z,15.88
2022-08-07T03:38:35.490Z,15.88
2022-08-07T03:40:00.002Z,15.89
2022-08-07T03:40:36.452Z,15.85
2022-08-07T03:41:42.165Z,15.85
2022-08-07T03:42:36.011Z,15.86
2022-08-07T03:43:36.097Z,15.86
2022-08-07T03:44:34.788Z,15.88
2022-08-07T03:45:34.402Z,15.88
2022-08-07T03:46:35.391Z,15.89
2022-08-07T03:47:48.272Z,15.88
2022-08-07T03:48:45.414Z,15.84
2022-08-07T03:49:35.368Z,15.84
2022-08-07T03:50:34.904Z,15.84
2022-08-07T03:51:46.958Z,15.84
2022-08-07T03:52:35.309Z,15.84
2022-08-07T03:54:02.054Z,15.89
2022-08-07T03:54:55.199Z,15.91
2022-08-07T03:55:58.282Z,15.91
2022-08-07T03:56:35.273Z,15.88
2022-08-07T03:58:18.097Z,15.85
2022-08-07T03:59:07.888Z,15.81
2022-08-07T03:59:35.197Z,15.81
2022-08-07T04:00:36.356Z,15.86
2022-08-07T04:01:34.212Z,15.89
2022-08-07T04:02:34.167Z,15.89
2022-08-07T04:03:49.815Z,15.91
2022-08-07T04:04:35.175Z,15.92
2022-08-07T04:05:40.635Z,15.96
2022-08-07T04:06:37.860Z,15.95
2022-08-07T04:07:36.126Z,15.92
2022-08-07T04:08:35.124Z,15.96
2022-08-07T04:09:44.906Z,15.96
2022-08-07T04:10:35.076Z,15.99
2022-08-07T04:12:25.500Z,16.01
2022-08-07T04:12:35.257Z,15.99
2022-08-07T04:14:10.627Z,15.98
2022-08-07T04:14:38.772Z,15.98
2022-08-07T04:15:34.989Z,15.96
2022-08-07T04:16:33.994Z,15.98
2022-08-07T04:18:11.263Z,16.01
2022-08-07T04:18:59.146Z,16.01
2022-08-07T04:19:52.651Z,15.98
2022-08-07T04:20:35.320Z,15.98
2022-08-07T04:21:33.923Z,15.96
2022-08-07T04:22:33.906Z,15.96
2022-08-07T04:23:43.432Z,15.95
2022-08-07T04:24:39.166Z,15.95
2022-08-07T04:25:39.047Z,15.96
2022-08-07T04:26:34.860Z,16.03
2022-08-07T04:27:39.239Z,16.08
2022-08-07T04:28:34.847Z,16.08
2022-08-07T04:29:48.922Z,16.13
2022-08-07T04:30:43.380Z,16.14
2022-08-07T04:32:02.555Z,16.14
2022-08-07T04:32:35.282Z,16.13
2022-08-07T04:33:35.380Z,16.14
2022-08-07T04:34:34.148Z,16.13
2022-08-07T04:35:35.083Z,16.16
2022-08-07T04:36:33.731Z,16.16
2022-08-07T04:37:52.766Z,16.14
2022-08-07T04:38:34.700Z,16.16
2022-08-07T04:39:35.850Z,16.17
2022-08-07T04:40:33.670Z,16.23
2022-08-07T04:41:36.881Z,16.22
2022-08-07T04:42:33.650Z,16.23
2022-08-07T04:44:12.928Z,16.29
2022-08-07T04:44:34.621Z,16.33
2022-08-07T04:45:57.426Z,16.33
2022-08-07T04:46:35.945Z,16.41
2022-08-07T04:47:58.334Z,16.47
2022-08-07T04:48:34.606Z,16.50
2022-08-07T04:49:37.854Z,16.52
2022-08-07T04:50:34.606Z,16.54
2022-08-07T04:51:33.552Z,16.55
2022-08-07T04:52:33.532Z,16.55
2022-08-07T04:54:02.048Z,16.55
2022-08-07T04:54:34.510Z,16.57
2022-08-07T04:58:15.261Z,16.55
2022-08-07T04:58:23.767Z,16.59
2022-08-07T04:58:32.155Z,16.57
2022-08-07T04:59:09.121Z,16.59
2022-08-07T05:00:09.664Z,16.59
2022-08-07T05:00:34.687Z,16.66
2022-08-07T05:01:33.451Z,16.69
2022-08-07T05:02:33.380Z,16.77
2022-08-07T05:04:06.942Z,16.77
2022-08-07T05:04:34.355Z,16.78
2022-08-07T05:05:52.156Z,16.80
2022-08-07T05:06:43.050Z,16.78
2022-08-07T05:07:36.789Z,16.78
2022-08-07T05:08:59.483Z,16.78
2022-08-07T05:09:45.660Z,16.82
2022-08-07T05:10:34.310Z,16.82
2022-08-07T05:11:57.020Z,16.85
2022-08-07T05:12:34.248Z,16.88
2022-08-07T05:14:51.993Z,16.87
2022-08-07T05:14:55.367Z,16.87
2022-08-07T05:15:34.219Z,16.85
2022-08-07T05:16:33.891Z,16.90
2022-08-07T05:17:51.467Z,16.95
2022-08-07T05:18:34.177Z,16.96
2022-08-07T05:19:33.219Z,16.98
2022-08-07T05:20:34.149Z,16.98
2022-08-07T05:22:00.655Z,16.96
2022-08-07T05:22:34.113Z,16.98
2022-08-07T05:23:35.568Z,16.99
2022-08-07T05:24:40.688Z,16.99
2022-08-07T05:26:10.198Z,17.05
2022-08-07T05:26:34.076Z,17.05
2022-08-07T05:28:15.652Z,17.12
2022-08-07T05:28:34.067Z,17.12
2022-08-07T05:29:38.988Z,17.15
2022-08-07T05:30:34.060Z,17.17
2022-08-07T05:31:35.329Z,17.17
2022-08-07T05:32:32.978Z,17.17
2022-08-07T05:33:35.441Z,17.15
2022-08-07T05:34:32.975Z,17.17
2022-08-07T05:35:33.595Z,17.21
2022-08-07T05:36:35.788Z,17.24
2022-08-07T05:37:40.882Z,17.33
2022-08-07T05:39:00.982Z,17.36
2022-08-07T05:40:05.073Z,17.33
2022-08-07T05:40:33.929Z,17.36
2022-08-07T05:42:02.735Z,17.33
2022-08-07T05:42:34.863Z,17.35
2022-08-07T05:43:49.797Z,17.39
2022-08-07T05:44:33.846Z,17.35
2022-08-07T05:45:47.869Z,17.39
2022-08-07T05:46:33.804Z,17.46
2022-08-07T05:47:38.716Z,17.47
2022-08-07T05:48:34.072Z,17.43
2022-08-07T05:49:40.608Z,17.36
2022-08-07T05:50:33.750Z,17.40
2022-08-07T05:51:39.922Z,17.46
2022-08-07T05:52:32.915Z,17.51
2022-08-07T05:54:09.410Z,17.55
2022-08-07T05:54:53.147Z,17.60
2022-08-07T05:56:01.998Z,17.63
2022-08-07T05:56:33.665Z,17.62
2022-08-07T05:57:34.692Z,17.66
2022-08-07T05:58:36.825Z,17.68
2022-08-07T05:59:47.290Z,17.71
2022-08-07T06:00:33.614Z,17.73
2022-08-07T06:01:35.770Z,17.71
2022-08-07T06:02:32.686Z,17.70
2022-08-07T06:03:53.500Z,17.74
2022-08-07T06:04:33.566Z,17.76
2022-08-07T06:05:32.601Z,17.79
2022-08-07T06:06:32.895Z,17.84
2022-08-07T06:08:14.917Z,17.86
2022-08-07T06:08:34.172Z,17.84
2022-08-07T06:10:04.035Z,17.89
2022-08-07T06:10:33.497Z,17.92
2022-08-07T06:11:32.499Z,17.95
2022-08-07T06:12:33.308Z,18.01
2022-08-07T06:14:12.114Z,18.05
2022-08-07T06:14:33.459Z,18.05
2022-08-07T06:15:39.081Z,18.04
2022-08-07T06:16:33.413Z,18.05
2022-08-07T06:17:37.855Z,18.11
2022-08-07T06:18:33.381Z,18.14
2022-08-07T06:19:57.590Z,18.20
2022-08-07T06:20:51.008Z,18.26
2022-08-07T06:22:15.028Z,18.29
2022-08-07T06:22:38.512Z,18.34
2022-08-07T06:24:38.150Z,18.34
2022-08-07T06:24:46.266Z,18.41
2022-08-07T06:25:34.832Z,18.47
2022-08-07T06:26:32.300Z,18.47
2022-08-07T06:27:44.191Z,18.50
2022-08-07T06:28:33.254Z,18.51
2022-08-07T06:29:32.247Z,18.54
2022-08-07T06:30:37.188Z,18.60
2022-08-07T06:31:46.610Z,18.65
2022-08-07T06:32:33.187Z,18.65
2022-08-07T06:33:33.041Z,18.68
2022-08-07T06:34:32.223Z,18.69
2022-08-07T06:35:45.561Z,18.72
2022-08-07T06:36:35.573Z,18.72
2022-08-07T06:37:43.463Z,18.71
2022-08-07T06:38:33.120Z,18.72
2022-08-07T06:40:16.059Z,18.78
2022-08-07T06:40:34.504Z,18.83
2022-08-07T06:42:00.737Z,18.84
2022-08-07T06:42:35.036Z,18.90
2022-08-07T06:43:35.957Z,18.86
2022-08-07T06:44:33.040Z,18.86
2022-08-07T06:45:32.094Z,18.90
2022-08-07T06:46:35.324Z,18.93
2022-08-07T06:47:48.323Z,18.93
2022-08-07T06:48:32.987Z,18.97
2022-08-07T06:49:31.968Z,19.02
2022-08-07T06:50:31.958Z,19.07
2022-08-07T06:51:33.487Z,19.06
2022-08-07T06:52:35.819Z,19.09
2022-08-07T06:55:27.172Z,19.15
2022-08-07T06:55:31.567Z,19.21
2022-08-07T06:55:52.638Z,19.28
2022-08-07T06:56:32.996Z,19.34
2022-08-07T06:57:43.446Z,19.39
2022-08-07T06:58:32.866Z,19.42
2022-08-07T07:00:13.502Z,19.43
2022-08-07T07:00:32.828Z,19.46
2022-08-07T07:01:41.826Z,19.47
2022-08-07T07:02:53.741Z,19.50
2022-08-07T07:03:48.730Z,19.50
2022-08-07T07:04:34.072Z,19.55
2022-08-07T07:06:04.436Z,19.55
2022-08-07T07:06:32.766Z,19.50
2022-08-07T07:07:59.667Z,19.53
2022-08-07T07:08:33.342Z,19.58
2022-08-07T07:09:31.914Z,19.62
2022-08-07T07:10:31.687Z,19.67
2022-08-07T07:12:08.960Z,19.70
2022-08-07T07:12:33.676Z,19.76
2022-08-07T07:13:55.985Z,19.82
2022-08-07T07:14:32.637Z,19.87
2022-08-07T07:15:35.732Z,19.86
2022-08-07T07:16:33.335Z,19.83
2022-08-07T07:17:39.087Z,19.85
2022-08-07T07:18:37.676Z,19.89
2022-08-07T07:19:56.049Z,19.95
2022-08-07T07:20:32.573Z,20.00
2022-08-07T07:21:40.519Z,20.02
2022-08-07T07:22:36.346Z,20.05
2022-08-07T07:24:09.307Z,20.02
2022-08-07T07:24:32.506Z,20.00
2022-08-07T07:26:34.684Z,20.04
2022-08-07T07:26:36.952Z,20.08
2022-08-07T07:27:35.838Z,20.12
2022-08-07T07:29:22.755Z,20.08
2022-08-07T07:29:39.904Z,20.10
2022-08-07T07:30:38.745Z,20.12
2022-08-07T07:31:44.135Z,20.16
2022-08-07T07:32:32.404Z,20.17
2022-08-07T07:33:31.393Z,20.25
2022-08-07T07:34:31.872Z,20.25
2022-08-07T07:35:33.402Z,20.23
2022-08-07T07:36:32.558Z,20.26
2022-08-07T07:37:49.432Z,20.35
2022-08-07T07:38:32.344Z,20.40
2022-08-07T07:39:35.901Z,20.42
2022-08-07T07:40:32.299Z,20.44
2022-08-07T07:42:02.316Z,20.42
2022-08-07T07:42:33.161Z,20.41
2022-08-07T07:44:14.749Z,20.42
2022-08-07T07:44:32.242Z,20.48
2022-08-07T07:46:38.221Z,20.54
2022-08-07T07:46:53.295Z,20.53
2022-08-07T07:47:42.884Z,20.58
2022-08-07T07:48:35.174Z,20.63
2022-08-07T07:50:33.642Z,20.66
2022-08-07T07:50:39.082Z,20.73
2022-08-07T07:51:32.197Z,20.75
2022-08-07T07:52:32.158Z,20.79
2022-08-07T07:53:31.162Z,20.82
2022-08-07T07:54:31.124Z,20.83
2022-08-07T07:55:37.623Z,20.87
2022-08-07T07:56:32.121Z,20.87
2022-08-07T07:57:52.402Z,20.90
2022-08-07T07:58:36.984Z,20.90
2022-08-07T07:59:52.619Z,20.88
2022-08-07T08:00:34.459Z,20.79
2022-08-07T08:02:05.218Z,20.81
2022-08-07T08:02:35.443Z,20.79
2022-08-07T08:04:05.955Z,20.83
2022-08-07T08:04:32.066Z,20.85
2022-08-07T08:05:50.797Z,20.91
2022-08-07T08:06:31.992Z,20.98
2022-08-07T08:07:35.753Z,21.03
2022-08-07T08:08:34.741Z,21.08
2022-08-07T08:09:30.929Z,21.12
2022-08-07T08:10:37.729Z,21.16
2022-08-07T08:11:59.207Z,21.21
2022-08-07T08:12:52.477Z,21.18
2022-08-07T08:13:33.406Z,21.16
2022-08-07T08:14:31.918Z,21.06
2022-08-07T08:15:57.966Z,20.98
2022-08-07T08:16:31.979Z,20.98
2022-08-07T08:17:58.016Z,21.03
2022-08-07T08:18:31.812Z,21.08
2022-08-07T08:20:17.523Z,21.15
2022-08-07T08:20:32.391Z,21.26
2022-08-07T08:22:00.442Z,21.33
2022-08-07T08:22:32.685Z,21.38
2022-08-07T08:23:30.751Z,21.40
2022-08-07T08:24:44.844Z,21.38
2022-08-07T08:25:42.964Z,21.38
2022-08-07T08:26:31.699Z,21.40
2022-08-07T08:27:33.717Z,21.37
2022-08-07T08:28:37.589Z,21.38
2022-08-07T08:29:31.667Z,21.36
2022-08-07T08:30:32.145Z,21.27
2022-08-07T08:31:59.124Z,21.26
2022-08-07T08:32:38.721Z,21.28
2022-08-07T08:33:33.080Z,21.30
2022-08-07T08:34:30.607Z,21.30
2022-08-07T08:35:39.146Z,21.36
2022-08-07T08:36:31.607Z,21.37
2022-08-07T08:38:00.507Z,21.40
2022-08-07T08:38:35.340Z,21.36
2022-08-07T08:39:39.114Z,21.36
2022-08-07T08:40:31.580Z,21.27
2022-08-07T08:41:31.553Z,21.22
2022-08-07T08:42:31.499Z,21.24
2022-08-07T08:43:41.841Z,21.30
2022-08-07T08:44:31.534Z,21.36
2022-08-07T08:45:58.452Z,21.38
2022-08-07T08:46:31.432Z,21.45
2022-08-07T08:47:30.649Z,21.52
2022-08-07T08:48:32.572Z,21.53
2022-08-07T08:49:32.716Z,21.48
2022-08-07T08:50:39.172Z,21.53
2022-08-07T08:52:13.139Z,21.56
2022-08-07T08:52:35.884Z,21.61
2022-08-07T08:53:31.346Z,21.66
2022-08-07T08:54:30.353Z,21.67
2022-08-07T08:55:54.730Z,21.58
2022-08-07T08:56:31.322Z,21.49
2022-08-07T08:57:33.992Z,21.40
2022-08-07T08:58:30.317Z,21.31
2022-08-07T08:59:30.259Z,21.27
2022-08-07T09:00:31.248Z,21.16
2022-08-07T09:01:39.999Z,21.09
2022-08-07T09:02:36.754Z,21.12
2022-08-07T09:03:47.788Z,21.13
2022-08-07T09:04:31.206Z,21.12
2022-08-07T09:05:32.328Z,21.13
2022-08-07T09:06:31.171Z,21.13
2022-08-07T09:07:45.875Z,21.18
2022-08-07T09:08:31.169Z,21.22
2022-08-07T09:09:33.329Z,21.28
2022-08-07T09:10:31.117Z,21.43
2022-08-07T09:11:50.836Z,21.51
2022-08-07T09:12:32.270Z,21.55
2022-08-07T09:13:36.831Z,21.64
2022-08-07T09:14:31.069Z,21.71
2022-08-07T09:16:23.336Z,21.77
2022-08-07T09:16:31.090Z,21.89
2022-08-07T09:17:34.121Z,21.93
2022-08-07T09:18:31.104Z,21.99
2022-08-07T09:19:52.315Z,21.91
2022-08-07T09:20:35.942Z,21.96
2022-08-07T09:21:58.212Z,21.93
2022-08-07T09:24:28.570Z,21.91
2022-08-07T09:24:33.796Z,21.93
2022-08-07T09:24:59.451Z,21.99
2022-08-07T09:25:30.938Z,22.05
2022-08-07T09:26:29.928Z,22.06
2022-08-07T09:27:30.313Z,22.08
2022-08-07T09:30:01.574Z,22.05
2022-08-07T09:30:03.760Z,22.05
2022-08-07T09:30:30.865Z,22.08
2022-08-07T09:31:38.307Z,22.08
2022-08-07T09:32:31.094Z,22.11
2022-08-07T09:33:52.814Z,22.15
2022-08-07T09:34:30.815Z,22.24
2022-08-07T09:36:03.130Z,22.33
2022-08-07T09:36:35.432Z,22.44
2022-08-07T09:37:33.426Z,22.56
2022-08-07T09:38:30.748Z,22.60
2022-08-07T09:39:54.569Z,22.49
2022-08-07T09:40:30.796Z,22.42
2022-08-07T09:41:36.341Z,22.30
2022-08-07T09:42:33.603Z,22.19
2022-08-07T09:44:03.221Z,22.01
2022-08-07T09:44:52.098Z,21.89
2022-08-07T09:47:50.206Z,21.81
2022-08-07T09:47:50.259Z,21.74
2022-08-07T09:47:59.059Z,21.71
2022-08-07T09:48:50.121Z,21.73
2022-08-07T09:50:01.622Z,21.75
2022-08-07T09:50:30.617Z,21.81
2022-08-07T09:52:10.905Z,21.89
2022-08-07T09:52:34.359Z,21.96
2022-08-07T09:53:41.272Z,22.08
2022-08-07T09:54:30.649Z,22.23
2022-08-07T09:56:03.533Z,22.48
2022-08-07T09:56:37.415Z,22.64
2022-08-07T09:57:30.797Z,22.67
2022-08-07T09:58:32.232Z,22.74
2022-08-07T09:59:31.083Z,22.76
2022-08-07T10:00:31.961Z,22.75
2022-08-07T10:01:53.162Z,22.82
2022-08-07T10:02:31.599Z,22.91
2022-08-07T10:04:06.578Z,22.99
2022-08-07T10:04:32.929Z,23.07
2022-08-07T10:05:58.938Z,23.04
2022-08-07T10:06:30.467Z,23.07
2022-08-07T10:07:31.468Z,23.12
2022-08-07T10:08:29.415Z,23.09
2022-08-07T10:09:34.538Z,22.94
2022-08-07T10:10:30.358Z,22.75
2022-08-07T10:12:02.327Z,22.52
2022-08-07T10:12:30.319Z,22.45
2022-08-07T10:13:54.939Z,22.51
2022-08-07T10:14:31.296Z,22.63
2022-08-07T10:15:29.269Z,22.84
2022-08-07T10:16:30.270Z,22.96
2022-08-07T10:17:33.716Z,22.89
2022-08-07T10:18:31.459Z,22.96
2022-08-07T10:19:30.138Z,23.11
2022-08-07T10:20:30.515Z,23.15
2022-08-07T10:22:12.157Z,23.22
2022-08-07T10:22:33.255Z,23.26
2022-08-07T10:24:06.964Z,23.21
2022-08-07T10:24:30.159Z,23.18
2022-08-07T10:25:42.178Z,23.21
2022-08-07T10:26:30.137Z,23.21
2022-08-07T10:27:30.260Z,23.26
2022-08-07T10:28:30.111Z,23.34
2022-08-07T10:29:30.391Z,23.32
2022-08-07T10:30:29.077Z,23.34
2022-08-07T10:31:31.464Z,23.38
2022-08-07T10:32:51.143Z,23.45
2022-08-07T10:34:05.950Z,23.54
2022-08-07T10:34:32.347Z,23.21
2022-08-07T10:35:55.288Z,23.06
2022-08-07T10:36:30.241Z,23.00
2022-08-07T10:37:48.797Z,23.01
2022-08-07T10:38:35.899Z,23.11
2022-08-07T10:39:41.857Z,23.22
2022-08-07T10:40:30.445Z,23.39
2022-08-07T10:41:52.167Z,23.50
2022-08-07T10:42:31.091Z,23.54
2022-08-07T10:43:34.872Z,23.39
2022-08-07T10:44:38.506Z,23.34
2022-08-07T10:45:44.016Z,23.35
2022-08-07T10:46:29.893Z,23.38
2022-08-07T10:47:53.143Z,23.16
2022-08-07T10:48:34.896Z,22.88
2022-08-07T10:49:49.209Z,22.70
2022-08-07T10:50:29.853Z,22.64
2022-08-07T10:51:39.407Z,22.54
2022-08-07T10:52:33.531Z,22.61
2022-08-07T10:53:44.551Z,22.88
2022-08-07T10:54:29.791Z,23.07
2022-08-07T10:55:38.174Z,23.01
2022-08-07T10:56:31.439Z,22.88
2022-08-07T10:57:34.629Z,22.74
2022-08-07T10:58:33.220Z,22.75
2022-08-07T10:59:30.406Z,22.72
2022-08-07T11:00:36.212Z,22.69
2022-08-07T11:01:35.852Z,22.63
2022-08-07T11:02:33.645Z,22.48
2022-08-07T11:03:37.808Z,22.41
2022-08-07T11:04:34.883Z,22.38
2022-08-07T11:05:35.851Z,22.44
2022-08-07T11:06:29.626Z,22.38
2022-08-07T11:08:00.835Z,22.39
2022-08-07T11:08:30.428Z,22.41
2022-08-07T11:10:09.237Z,22.51
2022-08-07T11:10:29.554Z,22.57
2022-08-07T11:11:28.576Z,22.57
2022-08-07T11:12:32.134Z,22.48
2022-08-07T11:14:42.684Z,22.52
2022-08-07T11:14:46.519Z,22.54
2022-08-07T11:15:31.990Z,22.56
2022-08-07T11:16:30.497Z,22.60
2022-08-07T11:17:43.112Z,22.49
2022-08-07T11:18:29.456Z,22.36
2022-08-07T11:19:28.466Z,22.36
2022-08-07T11:20:28.447Z,22.31
2022-08-07T11:21:28.404Z,22.31
2022-08-07T11:22:36.072Z,22.35
2022-08-07T11:23:36.390Z,22.33
2022-08-07T11:24:29.375Z,22.31
2022-08-07T11:25:28.361Z,22.35
2022-08-07T11:26:28.361Z,22.42
2022-08-07T11:28:00.861Z,22.49
2022-08-07T11:28:29.335Z,22.63
2022-08-07T11:29:43.047Z,22.81
2022-08-07T11:30:41.622Z,23.03
2022-08-07T11:31:29.290Z,23.31
2022-08-07T11:32:29.264Z,23.54
2022-08-07T11:33:53.875Z,23.67
2022-08-07T11:34:29.246Z,23.82
2022-08-07T11:35:28.235Z,23.92
2022-08-07T11:36:30.746Z,23.89
2022-08-07T11:37:38.701Z,23.71
2022-08-07T11:38:29.205Z,23.60
2022-08-07T11:39:39.563Z,23.53
2022-08-07T11:40:29.202Z,23.47
2022-08-07T11:41:29.610Z,23.26
2022-08-07T11:42:29.719Z,23.11
2022-08-07T11:43:29.614Z,23.04
2022-08-07T11:44:29.120Z,23.06
2022-08-07T11:45:35.428Z,23.11
2022-08-07T11:46:29.086Z,23.03
2022-08-07T11:47:39.113Z,22.89
2022-08-07T11:48:30.290Z,22.85
2022-08-07T11:50:18.508Z,22.85
2022-08-07T11:50:32.422Z,22.86
2022-08-07T11:52:18.934Z,22.84
2022-08-07T11:53:21.862Z,22.84
2022-08-07T11:54:22.150Z,22.88
2022-08-07T11:56:09.273Z,22.93
2022-08-07T11:56:26.964Z,23.03
2022-08-07T11:57:19.865Z,23.07
2022-08-07T11:58:19.849Z,23.16
2022-08-07T12:00:08.938Z,23.18
2022-08-07T12:00:20.233Z,23.16
2022-08-07T12:01:20.175Z,23.15
2022-08-07T12:02:20.899Z,23.14
2022-08-07T12:03:45.142Z,23.16
2022-08-07T12:04:19.820Z,23.21
2022-08-07T12:05:28.233Z,23.23
2022-08-07T12:06:37.512Z,23.18
2022-08-07T12:07:38.727Z,23.14
2022-08-07T12:08:25.852Z,23.14
2022-08-07T12:09:22.935Z,23.22
2022-08-07T12:10:18.721Z,23.34
2022-08-07T12:11:21.924Z,23.42
2022-08-07T12:12:18.679Z,23.41
2022-08-07T12:13:19.153Z,23.37
2022-08-07T12:14:19.663Z,23.35
2022-08-07T12:15:46.106Z,23.38
2022-08-07T12:16:29.954Z,23.38
2022-08-07T12:17:20.473Z,23.31
2022-08-07T12:18:22.277Z,23.29
2022-08-07T12:19:21.325Z,23.22
2022-08-07T12:20:30.601Z,23.26
2022-08-07T12:21:21.143Z,23.31
2022-08-07T12:22:37.043Z,23.34
2022-08-07T12:23:37.244Z,23.41
2022-08-07T12:24:37.567Z,23.52
2022-08-07T12:26:02.778Z,23.72
2022-08-07T12:26:30.092Z,23.87
2022-08-07T12:27:28.019Z,24.05
2022-08-07T12:28:30.781Z,24.19
2022-08-07T12:29:37.160Z,24.21
2022-08-07T12:30:19.432Z,24.15
2022-08-07T12:31:23.596Z,24.29
2022-08-07T12:32:19.428Z,24.34
2022-08-07T12:33:23.268Z,24.31
2022-08-07T12:34:19.467Z,24.16
2022-08-07T12:35:19.219Z,24.09
2022-08-07T12:36:18.361Z,23.97
2022-08-07T12:37:27.657Z,23.82
2022-08-07T12:38:36.856Z,23.78
2022-08-07T12:39:42.790Z,23.68
2022-08-07T12:40:46.443Z,23.59
2022-08-07T12:41:19.438Z,23.64
2022-08-07T12:42:18.283Z,23.64
2022-08-07T12:44:02.039Z,23.60
2022-08-07T12:44:19.262Z,23.44
2022-08-07T12:45:18.262Z,23.41
2022-08-07T12:46:26.307Z,23.44
2022-08-07T12:47:21.819Z,23.49
2022-08-07T12:48:27.895Z,23.44
2022-08-07T12:49:40.112Z,23.41
2022-08-07T12:50:38.200Z,23.41
2022-08-07T12:51:19.162Z,23.31
2022-08-07T12:52:19.397Z,23.26
2022-08-07T12:53:19.034Z,23.31